Time;durP1;ratioP1;P1;durP2;ratioP2;P2;SDS_P1;SDS_P2;PMS_P1;PMS_P2;Temp;Humidity;BMP_temperature;BMP_pressure;BME280_temperature;BME280_humidity;BME280_pressure;Samples;Min_cycle;Max_cycle;Signal;HPM_P1;HPM_P2
2021/03/14 00:01:31;;;;;;;5.88;1.80;;;;;;;;;;4992902;28;20044;-44
2021/03/14 00:03:57;;;;;;;3.30;1.45;;;;;;;;;;4992842;28;20034;-43
2021/03/14 00:06:23;;;;;;;6.78;2.00;;;;;;;;;;4997229;28;20037;-45
2021/03/14 00:08:49;;;;;;;2.03;1.08;;;;;;;;;;4992591;28;20493;-42
2021/03/14 00:11:15;;;;;;;2.72;1.77;;;;;;;;;;4991718;28;20034;-42
2021/03/14 00:13:41;;;;;;;3.78;1.17;;;;;;;;;;4992750;28;20057;-43
2021/03/14 00:16:08;;;;;;;3.28;1.60;;;;;;;;;;5003333;28;20037;-43
2021/03/14 00:18:36;;;;;;;4.75;1.20;;;;;;;;;;4992249;28;20026;-44
2021/03/14 00:21:03;;;;;;;2.33;1.40;;;;;;;;;;4992708;28;20034;-43
2021/03/14 00:23:29;;;;;;;5.07;1.30;;;;;;;;;;4992476;28;20058;-43
2021/03/14 00:25:55;;;;;;;6.03;1.40;;;;;;;;;;4993012;28;20070;-42
2021/03/14 00:28:21;;;;;;;1.92;1.15;;;;;;;;;;4993278;28;20422;-43
2021/03/14 00:30:47;;;;;;;4.38;1.65;;;;;;;;;;4992467;28;20105;-45
2021/03/14 00:33:14;;;;;;;2.50;1.58;;;;;;;;;;4992650;28;20025;-43
2021/03/14 00:35:40;;;;;;;4.88;1.40;;;;;;;;;;4992251;28;20038;-43
2021/03/14 00:38:06;;;;;;;2.28;1.35;;;;;;;;;;4995393;28;20027;-43
2021/03/14 00:40:32;;;;;;;4.45;1.45;;;;;;;;;;4999563;28;20080;-44
2021/03/14 00:42:59;;;;;;;3.05;1.40;;;;;;;;;;4992230;28;20065;-44
2021/03/14 00:45:25;;;;;;;1.90;1.58;;;;;;;;;;4992689;28;20041;-42
2021/03/14 00:47:51;;;;;;;4.05;1.40;;;;;;;;;;4993347;28;20367;-44
2021/03/14 00:50:17;;;;;;;1.92;1.40;;;;;;;;;;4992166;28;20485;-43
2021/03/14 00:52:43;;;;;;;5.22;1.55;;;;;;;;;;4993775;28;20066;-44
2021/03/14 00:55:10;;;;;;;3.63;1.63;;;;;;;;;;4995912;28;20049;-43
2021/03/14 00:57:36;;;;;;;4.82;1.42;;;;;;;;;;4983819;28;20465;-43
2021/03/14 01:00:02;;;;;;;8.45;1.40;;;;;;;;;;4995808;28;20027;-43
2021/03/14 01:02:28;;;;;;;5.85;1.70;;;;;;;;;;4995560;28;20133;-44
2021/03/14 01:04:54;;;;;;;3.83;1.63;;;;;;;;;;5002257;28;20112;-45
2021/03/14 01:07:20;;;;;;;3.95;1.70;;;;;;;;;;5007287;28;20038;-43
2021/03/14 01:09:46;;;;;;;4.90;1.60;;;;;;;;;;5007829;28;20033;-44
2021/03/14 01:12:12;;;;;;;2.53;1.55;;;;;;;;;;5005610;28;20026;-43
2021/03/14 01:14:38;;;;;;;4.05;1.60;;;;;;;;;;5006135;28;20424;-44
2021/03/14 01:17:04;;;;;;;3.90;1.40;;;;;;;;;;5002278;28;20034;-43
2021/03/14 01:19:30;;;;;;;5.15;1.75;;;;;;;;;;5010223;28;20046;-42
2021/03/14 01:21:57;;;;;;;5.60;2.00;;;;;;;;;;5003287;28;20497;-43
2021/03/14 01:24:23;;;;;;;3.35;1.52;;;;;;;;;;5001786;28;20037;-43
2021/03/14 01:26:49;;;;;;;5.43;1.63;;;;;;;;;;5004627;28;20529;-43
2021/03/14 01:29:15;;;;;;;6.05;1.85;;;;;;;;;;5007933;28;20060;-43
2021/03/14 01:31:41;;;;;;;5.22;2.05;;;;;;;;;;5006066;28;20056;-43
2021/03/14 01:34:07;;;;;;;3.00;1.80;;;;;;;;;;5009107;28;20116;-43
2021/03/14 01:36:33;;;;;;;4.78;1.58;;;;;;;;;;5002861;28;20057;-43
2021/03/14 01:38:59;;;;;;;6.30;1.90;;;;;;;;;;5007294;28;20404;-43
2021/03/14 01:41:25;;;;;;;3.25;1.88;;;;;;;;;;5008692;28;20030;-44
2021/03/14 01:43:51;;;;;;;2.92;1.88;;;;;;;;;;5005928;28;20353;-45
2021/03/14 01:46:17;;;;;;;9.23;2.15;;;;;;;;;;5002962;28;20117;-44
2021/03/14 01:48:44;;;;;;;4.82;2.10;;;;;;;;;;5011306;28;20018;-43
2021/03/14 01:51:10;;;;;;;4.53;2.28;;;;;;;;;;4998585;28;20050;-43
2021/03/14 01:53:36;;;;;;;5.28;2.13;;;;;;;;;;5000333;28;20113;-44
2021/03/14 01:56:02;;;;;;;5.63;2.05;;;;;;;;;;4994809;28;20109;-43
2021/03/14 01:58:29;;;;;;;6.88;1.98;;;;;;;;;;5005303;28;20046;-43
2021/03/14 02:00:55;;;;;;;6.60;2.20;;;;;;;;;;5005690;28;20495;-43
2021/03/14 02:03:24;;;;;;;4.05;1.55;;;;;;;;;;5001267;28;20076;-42
2021/03/14 02:05:51;;;;;;;6.38;2.08;;;;;;;;;;4996083;28;20026;-43
2021/03/14 02:08:18;;;;;;;4.78;2.10;;;;;;;;;;5004792;28;20030;-42
2021/03/14 02:10:45;;;;;;;3.65;1.85;;;;;;;;;;5009392;28;20026;-43
2021/03/14 02:13:19;;;;;;;3.33;2.17;;;;;;;;;;5005996;28;20112;-43
2021/03/14 02:15:47;;;;;;;8.88;2.40;;;;;;;;;;5008178;28;20121;-44
2021/03/14 02:18:14;;;;;;;2.83;1.85;;;;;;;;;;5004368;28;20045;-43
2021/03/14 02:20:40;;;;;;;6.68;2.03;;;;;;;;;;5005840;28;20037;-43
2021/03/14 02:23:13;;;;;;;7.15;2.03;;;;;;;;;;5002767;28;20156;-43
2021/03/14 02:25:44;;;;;;;3.17;2.00;;;;;;;;;;5004373;28;20042;-43
2021/03/14 02:28:10;;;;;;;5.53;2.30;;;;;;;;;;5006640;28;20038;-43
2021/03/14 02:30:36;;;;;;;3.55;2.08;;;;;;;;;;5010475;28;20061;-43
2021/03/14 02:33:03;;;;;;;5.85;2.70;;;;;;;;;;4997692;28;20170;-44
2021/03/14 02:35:29;;;;;;;9.32;3.13;;;;;;;;;;5001254;28;20415;-43
2021/03/14 02:37:56;;;;;;;6.95;3.08;;;;;;;;;;5007018;28;20137;-43
2021/03/14 02:40:22;;;;;;;4.93;3.10;;;;;;;;;;5009707;28;20026;-43
2021/03/14 02:42:49;;;;;;;7.78;3.53;;;;;;;;;;5004147;28;20022;-44
2021/03/14 02:45:15;;;;;;;7.65;3.25;;;;;;;;;;5007721;28;20052;-43
2021/03/14 02:47:41;;;;;;;8.93;3.50;;;;;;;;;;5001394;28;20077;-43
2021/03/14 02:50:09;;;;;;;11.25;3.15;;;;;;;;;;5001031;28;20064;-43
2021/03/14 02:52:36;;;;;;;10.90;3.50;;;;;;;;;;5001300;28;20087;-43
2021/03/14 02:55:03;;;;;;;4.90;3.20;;;;;;;;;;5004915;28;20033;-45
2021/03/14 02:57:29;;;;;;;8.20;3.70;;;;;;;;;;4999410;28;20030;-43
2021/03/14 02:59:56;;;;;;;9.98;4.05;;;;;;;;;;5009401;28;20113;-43
2021/03/14 03:02:23;;;;;;;8.73;3.92;;;;;;;;;;5001590;28;20057;-44
2021/03/14 03:04:50;;;;;;;6.10;4.18;;;;;;;;;;5010025;28;20030;-43
2021/03/14 03:07:17;;;;;;;10.93;4.20;;;;;;;;;;4995521;28;20033;-43
2021/03/14 03:09:45;;;;;;;8.85;3.90;;;;;;;;;;5007093;28;20026;-43
2021/03/14 03:12:12;;;;;;;6.60;3.53;;;;;;;;;;5005867;28;20030;-43
2021/03/14 03:14:38;;;;;;;7.18;3.50;;;;;;;;;;5008448;28;20033;-43
2021/03/14 03:17:05;;;;;;;5.60;3.25;;;;;;;;;;4999942;28;20130;-43
2021/03/14 03:19:32;;;;;;;5.25;2.92;;;;;;;;;;5003472;28;20530;-43
2021/03/14 03:21:58;;;;;;;9.00;2.83;;;;;;;;;;5007963;28;20409;-43
2021/03/14 03:24:24;;;;;;;5.55;2.95;;;;;;;;;;4998289;28;20029;-45
2021/03/14 03:26:50;;;;;;;6.38;2.33;;;;;;;;;;5003436;28;20137;-43
2021/03/14 03:29:17;;;;;;;6.07;2.63;;;;;;;;;;4998075;28;20381;-44
2021/03/14 03:31:44;;;;;;;4.00;2.15;;;;;;;;;;5003054;28;20466;-43
2021/03/14 03:34:10;;;;;;;3.13;2.17;;;;;;;;;;5011187;28;20117;-42
2021/03/14 03:36:37;;;;;;;5.32;2.30;;;;;;;;;;4997222;28;20446;-44
2021/03/14 03:39:07;;;;;;;4.70;2.00;;;;;;;;;;5002184;28;20034;-43
2021/03/14 03:41:34;;;;;;;4.28;1.92;;;;;;;;;;5007315;28;20433;-42
2021/03/14 03:44:01;;;;;;;4.18;2.17;;;;;;;;;;5006496;28;20428;-44
2021/03/14 03:46:27;;;;;;;3.47;2.05;;;;;;;;;;5000546;28;20042;-44
2021/03/14 03:48:55;;;;;;;3.30;2.63;;;;;;;;;;5001192;28;20026;-43
2021/03/14 03:51:28;;;;;;;3.88;2.30;;;;;;;;;;5008276;28;20064;-42
2021/03/14 03:53:55;;;;;;;4.25;2.00;;;;;;;;;;5002534;28;20038;-42
2021/03/14 03:56:22;;;;;;;4.50;2.45;;;;;;;;;;4999679;28;20430;-42
2021/03/14 03:58:48;;;;;;;3.33;2.30;;;;;;;;;;4998001;28;20031;-42
2021/03/14 04:01:14;;;;;;;3.55;1.90;;;;;;;;;;4997635;28;20056;-42
2021/03/14 04:03:42;;;;;;;4.30;2.15;;;;;;;;;;5007600;28;20036;-45
2021/03/14 04:06:08;;;;;;;3.28;1.60;;;;;;;;;;5007828;28;20364;-43
2021/03/14 04:08:35;;;;;;;1.80;1.70;;;;;;;;;;5006251;28;20109;-45
2021/03/14 04:11:05;;;;;;;5.75;1.88;;;;;;;;;;5004238;28;20036;-43
2021/03/14 04:13:32;;;;;;;6.00;1.90;;;;;;;;;;5004495;28;20046;-43
2021/03/14 04:15:59;;;;;;;1.80;1.50;;;;;;;;;;5003941;28;20133;-44
2021/03/14 04:18:26;;;;;;;6.35;1.85;;;;;;;;;;4999885;28;20105;-44
2021/03/14 04:20:52;;;;;;;2.85;2.08;;;;;;;;;;4992788;28;20050;-42
2021/03/14 04:23:20;;;;;;;2.13;1.73;;;;;;;;;;4999746;28;20030;-42
2021/03/14 04:25:49;;;;;;;2.45;1.65;;;;;;;;;;4995622;28;20022;-42
2021/03/14 04:28:16;;;;;;;2.00;1.80;;;;;;;;;;4996565;28;20426;-43
2021/03/14 04:30:42;;;;;;;4.93;1.90;;;;;;;;;;5003848;28;20022;-43
2021/03/14 04:33:09;;;;;;;3.58;1.73;;;;;;;;;;5007411;28;20610;-43
2021/03/14 04:35:36;;;;;;;2.25;1.40;;;;;;;;;;5010539;28;20046;-42
2021/03/14 04:38:02;;;;;;;2.15;1.45;;;;;;;;;;5004287;28;20041;-45
2021/03/14 04:40:28;;;;;;;3.00;1.58;;;;;;;;;;5010538;28;20116;-47
2021/03/14 04:42:54;;;;;;;1.85;1.50;;;;;;;;;;5000953;28;20088;-44
2021/03/14 04:45:21;;;;;;;6.45;2.08;;;;;;;;;;5003996;28;20034;-43
2021/03/14 04:47:47;;;;;;;2.67;1.80;;;;;;;;;;5002357;28;20040;-43
2021/03/14 04:50:19;;;;;;;5.53;2.30;;;;;;;;;;5003417;28;20049;-43
2021/03/14 04:52:45;;;;;;;2.47;1.92;;;;;;;;;;5007879;28;20027;-42
2021/03/14 04:55:13;;;;;;;4.50;2.00;;;;;;;;;;5006428;28;20029;-43
2021/03/14 04:57:40;;;;;;;3.10;2.17;;;;;;;;;;4998893;28;20045;-43
2021/03/14 05:00:08;;;;;;;3.17;1.98;;;;;;;;;;5009218;28;20037;-44
2021/03/14 05:02:34;;;;;;;4.90;2.15;;;;;;;;;;5003811;28;20438;-43
2021/03/14 05:05:01;;;;;;;3.25;2.00;;;;;;;;;;5004757;28;20042;-42
2021/03/14 05:07:30;;;;;;;9.23;2.30;;;;;;;;;;4998711;28;20049;-43
2021/03/14 05:09:57;;;;;;;4.22;2.22;;;;;;;;;;5007887;28;20061;-42
2021/03/14 05:12:23;;;;;;;4.68;2.15;;;;;;;;;;5000738;28;20027;-42
2021/03/14 05:14:50;;;;;;;4.63;2.10;;;;;;;;;;5002323;28;20028;-46
2021/03/14 05:17:17;;;;;;;7.30;2.70;;;;;;;;;;4999622;28;20037;-43
2021/03/14 05:19:43;;;;;;;2.42;2.08;;;;;;;;;;5004823;28;20026;-43
2021/03/14 05:22:09;;;;;;;5.65;2.38;;;;;;;;;;5005628;28;20038;-44
2021/03/14 05:24:36;;;;;;;6.22;2.70;;;;;;;;;;5003195;28;20100;-43
2021/03/14 05:27:03;;;;;;;5.55;2.80;;;;;;;;;;5006105;28;20038;-45
2021/03/14 05:29:29;;;;;;;4.82;2.30;;;;;;;;;;5006168;28;20050;-43
2021/03/14 05:31:56;;;;;;;3.85;2.42;;;;;;;;;;5001797;28;20038;-43
2021/03/14 05:34:22;;;;;;;7.60;2.95;;;;;;;;;;5006676;28;20026;-43
2021/03/14 05:36:48;;;;;;;6.75;3.05;;;;;;;;;;5005966;28;20104;-43
2021/03/14 05:39:14;;;;;;;4.28;2.72;;;;;;;;;;4997883;28;20109;-43
2021/03/14 05:41:41;;;;;;;7.07;3.13;;;;;;;;;;5005381;28;20053;-42
2021/03/14 05:44:07;;;;;;;4.38;2.78;;;;;;;;;;5007152;28;20040;-44
2021/03/14 05:46:34;;;;;;;4.20;2.35;;;;;;;;;;4997158;28;20113;-43
2021/03/14 05:49:00;;;;;;;3.60;2.03;;;;;;;;;;5009490;28;20380;-43
2021/03/14 05:51:35;;;;;;;3.75;1.88;;;;;;;;;;5010032;28;20065;-42
2021/03/14 05:54:01;;;;;;;5.10;2.00;;;;;;;;;;4994678;28;20036;-46
2021/03/14 05:56:28;;;;;;;5.43;2.10;;;;;;;;;;5008365;28;20352;-43
2021/03/14 05:58:55;;;;;;;3.63;2.30;;;;;;;;;;5005608;28;20404;-45
2021/03/14 06:01:25;;;;;;;5.50;2.35;;;;;;;;;;4998934;28;20359;-43
2021/03/14 06:03:52;;;;;;;4.25;2.65;;;;;;;;;;5005784;28;20090;-42
2021/03/14 06:06:18;;;;;;;5.03;2.35;;;;;;;;;;4997262;28;20022;-42
2021/03/14 06:08:44;;;;;;;5.05;2.55;;;;;;;;;;5005941;28;20450;-41
2021/03/14 06:11:11;;;;;;;5.60;2.72;;;;;;;;;;4994376;28;20041;-42
2021/03/14 06:13:37;;;;;;;3.42;2.38;;;;;;;;;;5002867;28;20050;-42
2021/03/14 06:16:03;;;;;;;3.90;2.28;;;;;;;;;;5009218;28;20175;-42
2021/03/14 06:18:30;;;;;;;3.97;2.55;;;;;;;;;;5001874;28;20564;-42
2021/03/14 06:20:56;;;;;;;5.40;2.53;;;;;;;;;;4993353;28;20030;-42
2021/03/14 06:23:23;;;;;;;4.30;2.50;;;;;;;;;;4998944;28;20037;-42
2021/03/14 06:25:58;;;;;;;4.35;2.40;;;;;;;;;;5006315;28;20037;-43
2021/03/14 06:28:35;;;;;;;8.98;2.75;;;;;;;;;;5004377;28;20057;-44
2021/03/14 06:31:21;;;;;;;4.82;2.50;;;;;;;;;;5002148;28;20117;-46
2021/03/14 06:33:47;;;;;;;4.85;2.42;;;;;;;;;;4994926;28;20102;-42
2021/03/14 06:36:20;;;;;;;4.13;2.85;;;;;;;;;;5001467;28;20018;-42
2021/03/14 06:38:47;;;;;;;3.45;2.40;;;;;;;;;;5001143;28;20404;-44
2021/03/14 06:41:14;;;;;;;7.43;2.08;;;;;;;;;;4999237;28;20026;-45
2021/03/14 06:43:48;;;;;;;6.43;2.33;;;;;;;;;;5011564;28;20520;-45
2021/03/14 06:46:27;;;;;;;5.13;2.03;;;;;;;;;;5002265;28;20496;-43
2021/03/14 06:49:12;;;;;;;2.92;2.08;;;;;;;;;;5000645;28;20049;-43
2021/03/14 06:51:42;;;;;;;5.80;2.10;;;;;;;;;;4994596;28;20069;-43
2021/03/14 06:54:34;;;;;;;3.85;1.90;;;;;;;;;;4994759;28;20465;-44
2021/03/14 06:57:02;;;;;;;5.32;1.90;;;;;;;;;;4993824;28;20506;-43
2021/03/14 06:59:29;;;;;;;4.00;1.73;;;;;;;;;;5007881;28;20088;-43
2021/03/14 07:01:58;;;;;;;2.45;1.70;;;;;;;;;;5001643;28;20056;-44
2021/03/14 07:04:34;;;;;;;3.25;1.70;;;;;;;;;;5006150;28;20034;-44
2021/03/14 07:07:00;;;;;;;2.83;1.58;;;;;;;;;;4995196;28;20081;-44
2021/03/14 07:09:26;;;;;;;2.58;1.60;;;;;;;;;;5003715;28;20105;-43
2021/03/14 07:11:52;;;;;;;2.05;1.60;;;;;;;;;;5004122;28;20034;-42
2021/03/14 07:14:20;;;;;;;4.03;1.75;;;;;;;;;;5006574;28;20454;-43
2021/03/14 07:16:54;;;;;;;1.42;1.33;;;;;;;;;;4994821;28;20027;-42
2021/03/14 07:19:24;;;;;;;1.60;1.30;;;;;;;;;;5006623;28;20056;-43
2021/03/14 07:21:57;;;;;;;2.97;1.40;;;;;;;;;;5002322;28;20023;-43
2021/03/14 07:24:23;;;;;;;;;;;;;;;;;;5004211;28;20378;-43
2021/03/14 07:26:49;;;;;;;1.83;1.23;;;;;;;;;;5000631;28;19956;-44
2021/03/14 07:29:15;;;;;;;3.10;1.60;;;;;;;;;;5005068;28;20050;-42
2021/03/14 07:31:41;;;;;;;3.15;1.17;;;;;;;;;;5001273;28;20505;-43
2021/03/14 07:34:07;;;;;;;3.70;1.40;;;;;;;;;;5006323;28;20026;-42
2021/03/14 07:36:34;;;;;;;3.05;1.73;;;;;;;;;;4998945;28;20037;-44
2021/03/14 07:39:00;;;;;;;3.05;1.30;;;;;;;;;;4999529;28;20420;-43
2021/03/14 07:41:26;;;;;;;3.60;1.60;;;;;;;;;;5007775;28;20022;-42
2021/03/14 07:43:53;;;;;;;2.65;1.20;;;;;;;;;;5003261;28;20034;-43
2021/03/14 07:46:20;;;;;;;2.50;1.42;;;;;;;;;;4998956;28;20034;-44
2021/03/14 07:48:48;;;;;;;1.92;1.55;;;;;;;;;;4997981;28;20022;-43
2021/03/14 07:51:14;;;;;;;2.63;1.15;;;;;;;;;;4999439;28;20077;-43
2021/03/14 07:53:40;;;;;;;2.75;1.45;;;;;;;;;;5002027;28;20030;-43
2021/03/14 07:56:06;;;;;;;2.72;1.27;;;;;;;;;;5002436;28;20034;-42
2021/03/14 07:58:34;;;;;;;2.20;1.13;;;;;;;;;;5003532;28;20134;-42
2021/03/14 08:01:19;;;;;;;3.53;1.80;;;;;;;;;;5004557;28;20037;-43
2021/03/14 08:03:45;;;;;;;2.83;1.40;;;;;;;;;;4997166;28;20112;-42
2021/03/14 08:06:11;;;;;;;1.65;1.10;;;;;;;;;;5005914;28;20084;-42
2021/03/14 08:08:36;;;;;;;5.47;2.00;;;;;;;;;;5007191;28;20523;-42
2021/03/14 08:11:03;;;;;;;3.00;1.50;;;;;;;;;;5007015;28;20030;-43
2021/03/14 08:13:31;;;;;;;2.97;1.50;;;;;;;;;;5007624;28;20420;-45
2021/03/14 08:16:02;;;;;;;6.18;1.60;;;;;;;;;;5005558;28;20378;-44
2021/03/14 08:18:41;;;;;;;2.33;1.30;;;;;;;;;;5012089;28;20125;-44
2021/03/14 08:21:27;;;;;;;2.58;1.50;;;;;;;;;;5007641;28;20033;-42
2021/03/14 08:23:54;;;;;;;4.25;1.50;;;;;;;;;;5006473;28;20054;-44
2021/03/14 08:26:22;;;;;;;7.30;2.53;;;;;;;;;;5007433;28;20072;-43
2021/03/14 08:28:55;;;;;;;2.72;1.67;;;;;;;;;;4999315;28;20021;-46
2021/03/14 08:31:39;;;;;;;3.28;1.88;;;;;;;;;;5012277;28;20064;-43
2021/03/14 08:34:06;;;;;;;3.50;1.60;;;;;;;;;;5000185;28;20447;-42
2021/03/14 08:36:34;;;;;;;4.25;1.83;;;;;;;;;;5008740;28;20037;-46
2021/03/14 08:39:00;;;;;;;5.07;2.50;;;;;;;;;;4996805;28;20030;-45
2021/03/14 08:41:28;;;;;;;5.05;1.85;;;;;;;;;;5001748;28;20026;-43
2021/03/14 08:43:54;;;;;;;5.07;1.92;;;;;;;;;;4998024;28;20053;-43
2021/03/14 08:46:20;;;;;;;3.17;1.80;;;;;;;;;;5006161;28;20108;-43
2021/03/14 08:48:47;;;;;;;2.75;1.80;;;;;;;;;;5005523;28;20026;-42
2021/03/14 08:51:13;;;;;;;5.65;1.90;;;;;;;;;;5004953;28;20050;-42
2021/03/14 08:53:39;;;;;;;4.40;1.77;;;;;;;;;;5005147;28;20045;-42
2021/03/14 08:56:06;;;;;;;3.50;1.70;;;;;;;;;;5005531;28;20064;-42
2021/03/14 08:58:32;;;;;;;5.30;1.90;;;;;;;;;;5000608;28;20393;-42
2021/03/14 09:01:01;;;;;;;4.85;1.83;;;;;;;;;;5005077;28;20026;-43
2021/03/14 09:03:27;;;;;;;5.85;1.65;;;;;;;;;;5006202;28;20026;-43
2021/03/14 09:06:02;;;;;;;4.30;1.60;;;;;;;;;;4995750;28;20137;-42
2021/03/14 09:08:28;;;;;;;3.25;1.67;;;;;;;;;;4997481;28;20056;-43
2021/03/14 09:10:54;;;;;;;2.83;1.70;;;;;;;;;;5000343;28;20375;-43
2021/03/14 09:13:30;;;;;;;3.30;1.65;;;;;;;;;;4996411;28;20126;-43
2021/03/14 09:15:56;;;;;;;10.10;1.77;;;;;;;;;;4998119;28;20038;-44
2021/03/14 09:18:26;;;;;;;4.95;1.85;;;;;;;;;;5000591;28;20036;-43
2021/03/14 09:20:59;;;;;;;7.15;1.70;;;;;;;;;;5005153;28;20420;-43
2021/03/14 09:23:25;;;;;;;6.00;2.22;;;;;;;;;;4998503;28;20030;-43
2021/03/14 09:25:52;;;;;;;5.45;2.05;;;;;;;;;;5001120;28;20038;-42
2021/03/14 09:28:18;;;;;;;2.42;1.58;;;;;;;;;;4996269;28;20055;-42
2021/03/14 09:30:43;;;;;;;5.20;1.63;;;;;;;;;;4993534;28;20045;-42
2021/03/14 09:33:12;;;;;;;2.03;1.67;;;;;;;;;;4993315;28;20465;-43
2021/03/14 09:35:39;;;;;;;4.43;1.90;;;;;;;;;;4994970;28;20033;-43
2021/03/14 09:38:05;;;;;;;4.50;1.70;;;;;;;;;;4996729;28;20481;-44
2021/03/14 09:40:32;;;;;;;3.35;1.63;;;;;;;;;;4995583;28;20091;-45
2021/03/14 09:43:30;;;;;;;4.07;2.22;;;;;;;;;;4991699;28;20026;-43
2021/03/14 09:45:57;;;;;;;4.82;2.13;;;;;;;;;;4973369;28;20045;-44
2021/03/14 09:48:27;;;;;;;7.45;1.85;;;;;;;;;;5008808;28;20064;-45
2021/03/14 09:51:09;;;;;;;4.85;1.85;;;;;;;;;;4996513;28;20543;-43
2021/03/14 09:53:36;;;;;;;6.15;1.63;;;;;;;;;;4994500;28;20121;-42
2021/03/14 09:56:03;;;;;;;5.45;1.60;;;;;;;;;;4995391;28;20084;-42
2021/03/14 09:58:30;;;;;;;6.15;2.10;;;;;;;;;;5005750;28;20037;-45
2021/03/14 10:00:57;;;;;;;4.80;2.00;;;;;;;;;;5005516;28;20173;-44
2021/03/14 10:03:24;;;;;;;6.07;1.92;;;;;;;;;;5000494;28;20073;-45
2021/03/14 10:05:57;;;;;;;5.07;1.88;;;;;;;;;;5004197;28;20130;-43
2021/03/14 10:08:24;;;;;;;7.45;2.40;;;;;;;;;;5003244;28;20072;-43
2021/03/14 10:10:51;;;;;;;4.90;2.10;;;;;;;;;;5003947;28;20030;-42
2021/03/14 10:13:18;;;;;;;2.95;1.90;;;;;;;;;;4988312;28;20050;-43
2021/03/14 10:15:44;;;;;;;7.95;2.63;;;;;;;;;;5004309;28;20018;-43
2021/03/14 10:18:15;;;;;;;5.80;1.83;;;;;;;;;;4997355;28;20120;-43
2021/03/14 10:20:41;;;;;;;7.35;2.47;;;;;;;;;;4995934;28;20042;-45
2021/03/14 10:23:08;;;;;;;6.80;2.80;;;;;;;;;;5002547;28;20033;-44
2021/03/14 10:25:38;;;;;;;6.88;2.17;;;;;;;;;;4999564;28;20117;-43
2021/03/14 10:28:15;;;;;;;4.60;1.83;;;;;;;;;;5003045;28;20073;-43
2021/03/14 10:30:42;;;;;;;8.32;2.63;;;;;;;;;;5003527;28;20026;-42
2021/03/14 10:33:12;;;;;;;5.68;1.90;;;;;;;;;;5001627;28;20041;-42
2021/03/14 10:35:39;;;;;;;8.75;1.98;;;;;;;;;;5008662;28;20034;-42
2021/03/14 10:38:15;;;;;;;5.07;1.58;;;;;;;;;;4995833;28;20125;-44
2021/03/14 10:40:41;;;;;;;6.40;2.00;;;;;;;;;;5002457;28;20476;-43
2021/03/14 10:43:21;;;;;;;6.70;1.70;;;;;;;;;;4999396;28;20079;-42
2021/03/14 10:45:47;;;;;;;3.67;1.90;;;;;;;;;;5005099;28;20048;-44
2021/03/14 10:48:13;;;;;;;7.50;2.33;;;;;;;;;;5008354;28;20034;-42
2021/03/14 10:50:39;;;;;;;4.93;2.17;;;;;;;;;;5000625;28;20046;-42
2021/03/14 10:53:08;;;;;;;4.68;2.05;;;;;;;;;;5006950;28;20026;-43
2021/03/14 10:55:35;;;;;;;5.75;2.40;;;;;;;;;;4998939;28;20010;-43
2021/03/14 10:58:05;;;;;;;6.90;2.00;;;;;;;;;;5001259;28;20037;-42
2021/03/14 11:00:31;;;;;;;8.00;1.98;;;;;;;;;;4999371;28;20473;-42
2021/03/14 11:02:59;;;;;;;6.63;2.00;;;;;;;;;;5002875;28;20071;-45
2021/03/14 11:05:25;;;;;;;3.17;1.85;;;;;;;;;;4994218;28;20038;-43
2021/03/14 11:08:01;;;;;;;5.60;1.92;;;;;;;;;;4995312;28;20048;-43
2021/03/14 11:10:27;;;;;;;6.25;2.03;;;;;;;;;;5007252;28;20022;-43
2021/03/14 11:12:53;;;;;;;10.07;2.33;;;;;;;;;;4992346;28;20085;-44
2021/03/14 11:15:23;;;;;;;4.05;1.75;;;;;;;;;;4992389;28;20712;-42
2021/03/14 11:17:50;;;;;;;8.57;1.55;;;;;;;;;;4991984;28;20073;-43
2021/03/14 11:20:17;;;;;;;7.53;2.33;;;;;;;;;;4994140;28;20033;-45
2021/03/14 11:22:43;;;;;;;2.70;1.65;;;;;;;;;;4992188;28;20041;-44
2021/03/14 11:25:12;;;;;;;5.85;1.80;;;;;;;;;;4993901;28;20030;-42
2021/03/14 11:27:38;;;;;;;6.20;2.28;;;;;;;;;;4999776;28;20065;-43
2021/03/14 11:30:04;;;;;;;6.65;1.92;;;;;;;;;;4993791;28;20026;-43
2021/03/14 11:32:30;;;;;;;6.63;1.80;;;;;;;;;;4984780;28;20093;-43
2021/03/14 11:34:56;;;;;;;7.50;2.03;;;;;;;;;;4990498;28;20030;-45
2021/03/14 11:37:22;;;;;;;6.88;2.05;;;;;;;;;;4992716;28;20085;-44
2021/03/14 11:39:48;;;;;;;8.30;1.60;;;;;;;;;;4992921;28;20362;-43
2021/03/14 11:42:14;;;;;;;6.50;1.23;;;;;;;;;;4993423;28;20109;-43
2021/03/14 11:44:41;;;;;;;4.43;1.38;;;;;;;;;;5000355;28;20031;-43
2021/03/14 11:47:07;;;;;;;8.75;1.42;;;;;;;;;;4997261;28;20110;-44
2021/03/14 11:49:33;;;;;;;5.00;1.50;;;;;;;;;;4997678;28;20105;-43
2021/03/14 11:51:59;;;;;;;4.88;1.45;;;;;;;;;;4991693;28;20026;-43
2021/03/14 11:54:25;;;;;;;6.75;1.50;;;;;;;;;;5000745;28;20023;-43
2021/03/14 11:56:51;;;;;;;4.78;1.98;;;;;;;;;;4985476;28;20164;-45
2021/03/14 11:59:18;;;;;;;4.47;1.27;;;;;;;;;;4991822;28;20406;-44
2021/03/14 12:01:46;;;;;;;4.18;1.58;;;;;;;;;;4996513;28;20026;-43
2021/03/14 12:04:12;;;;;;;4.45;1.60;;;;;;;;;;4994267;28;20136;-44
2021/03/14 12:06:38;;;;;;;6.55;1.63;;;;;;;;;;4984719;28;20073;-43
2021/03/14 12:09:05;;;;;;;5.07;1.45;;;;;;;;;;4988687;28;20027;-43
2021/03/14 12:11:33;;;;;;;6.18;1.17;;;;;;;;;;4998037;28;20026;-44
2021/03/14 12:13:59;;;;;;;3.03;1.10;;;;;;;;;;4994846;28;20529;-44
2021/03/14 12:16:25;;;;;;;2.78;0.73;;;;;;;;;;4992631;28;20023;-43
2021/03/14 12:18:52;;;;;;;3.70;0.98;;;;;;;;;;4992926;28;20065;-43
2021/03/14 12:21:18;;;;;;;5.55;1.20;;;;;;;;;;4992813;28;20031;-43
2021/03/14 12:23:44;;;;;;;5.18;1.23;;;;;;;;;;4992662;28;20065;-42
2021/03/14 12:26:11;;;;;;;4.28;1.13;;;;;;;;;;5000677;28;20053;-43
2021/03/14 12:28:37;;;;;;;2.95;1.20;;;;;;;;;;4991908;28;20035;-43
2021/03/14 12:31:03;;;;;;;2.75;0.90;;;;;;;;;;4991043;28;20374;-45
2021/03/14 12:33:29;;;;;;;2.05;0.95;;;;;;;;;;4992154;28;20033;-43
2021/03/14 12:35:55;;;;;;;2.65;1.00;;;;;;;;;;4985949;28;20033;-42
2021/03/14 12:38:21;;;;;;;2.50;0.70;;;;;;;;;;4994566;28;20026;-45
2021/03/14 12:40:48;;;;;;;3.67;0.70;;;;;;;;;;4995353;28;20366;-43
2021/03/14 12:43:14;;;;;;;1.85;0.68;;;;;;;;;;4996548;28;20042;-44
2021/03/14 12:45:41;;;;;;;2.15;0.60;;;;;;;;;;4992501;28;20045;-47
2021/03/14 12:48:07;;;;;;;1.60;0.57;;;;;;;;;;4992174;28;20033;-46
2021/03/14 12:50:33;;;;;;;2.97;0.82;;;;;;;;;;4994872;28;20165;-43
2021/03/14 12:52:59;;;;;;;1.55;0.68;;;;;;;;;;4991779;28;20405;-44
2021/03/14 12:55:26;;;;;;;1.55;0.43;;;;;;;;;;4995945;28;20041;-44
2021/03/14 12:57:52;;;;;;;3.03;0.77;;;;;;;;;;4998495;28;20030;-44
2021/03/14 13:00:18;;;;;;;2.00;0.73;;;;;;;;;;4991130;28;20580;-43
2021/03/14 13:02:44;;;;;;;4.82;1.35;;;;;;;;;;4987177;28;20030;-42
2021/03/14 13:05:10;;;;;;;2.95;1.10;;;;;;;;;;4994068;28;20112;-45
2021/03/14 13:07:36;;;;;;;8.07;1.00;;;;;;;;;;4994857;28;20034;-43
2021/03/14 13:10:06;;;;;;;4.13;0.98;;;;;;;;;;4998481;28;20026;-44
2021/03/14 13:12:32;;;;;;;3.10;1.08;;;;;;;;;;4998558;28;20420;-42
2021/03/14 13:14:58;;;;;;;7.35;1.17;;;;;;;;;;4995446;28;20470;-44
2021/03/14 13:17:24;;;;;;;1.33;0.88;;;;;;;;;;4986389;28;20027;-48
2021/03/14 13:19:50;;;;;;;3.25;1.10;;;;;;;;;;4993074;28;20118;-45
2021/03/14 13:22:16;;;;;;;2.03;0.93;;;;;;;;;;5000446;28;20091;-42
2021/03/14 13:24:43;;;;;;;5.55;1.10;;;;;;;;;;5000218;28;20030;-44
2021/03/14 13:27:09;;;;;;;1.85;0.93;;;;;;;;;;4996425;28;20030;-43
2021/03/14 13:29:35;;;;;;;3.20;1.10;;;;;;;;;;5000414;28;20054;-42
2021/03/14 13:32:01;;;;;;;3.90;1.00;;;;;;;;;;4990674;28;20054;-43
2021/03/14 13:34:27;;;;;;;3.28;1.40;;;;;;;;;;4988191;28;20076;-43
2021/03/14 13:36:53;;;;;;;4.50;1.13;;;;;;;;;;5002573;28;20476;-43
2021/03/14 13:39:19;;;;;;;2.55;1.10;;;;;;;;;;4997269;28;20035;-43
2021/03/14 13:41:45;;;;;;;1.58;0.90;;;;;;;;;;5012406;28;20045;-44
2021/03/14 13:44:11;;;;;;;2.53;1.00;;;;;;;;;;5003728;28;20105;-43
2021/03/14 13:46:37;;;;;;;2.65;1.05;;;;;;;;;;4991512;28;20169;-47
2021/03/14 13:49:03;;;;;;;2.78;0.90;;;;;;;;;;4999716;28;20034;-44
2021/03/14 13:51:29;;;;;;;2.58;0.90;;;;;;;;;;5000036;28;20045;-43
2021/03/14 13:53:55;;;;;;;1.33;0.68;;;;;;;;;;4998898;28;20022;-43
2021/03/14 13:56:22;;;;;;;3.05;0.73;;;;;;;;;;4996166;28;20504;-44
2021/03/14 13:58:48;;;;;;;1.75;1.02;;;;;;;;;;5003509;28;20101;-44
2021/03/14 14:01:14;;;;;;;3.70;0.77;;;;;;;;;;4990203;28;20040;-42
2021/03/14 14:03:40;;;;;;;4.63;1.10;;;;;;;;;;5002448;28;20124;-44
2021/03/14 14:06:06;;;;;;;1.75;0.65;;;;;;;;;;5002124;28;20045;-43
2021/03/14 14:08:32;;;;;;;5.88;0.90;;;;;;;;;;4997241;28;20042;-45
2021/03/14 14:10:59;;;;;;;2.13;0.57;;;;;;;;;;4993792;28;20502;-43
2021/03/14 14:13:25;;;;;;;2.17;0.50;;;;;;;;;;5002657;28;20454;-43
2021/03/14 14:15:58;;;;;;;2.10;0.40;;;;;;;;;;5001191;28;20023;-44
2021/03/14 14:18:25;;;;;;;1.17;0.30;;;;;;;;;;4997913;28;20482;-44
2021/03/14 14:20:54;;;;;;;1.13;0.45;;;;;;;;;;5001041;28;20097;-46
2021/03/14 14:23:20;;;;;;;4.80;0.63;;;;;;;;;;4992454;28;20172;-46
2021/03/14 14:25:46;;;;;;;2.50;0.30;;;;;;;;;;5001403;28;20026;-44
2021/03/14 14:28:13;;;;;;;4.85;0.50;;;;;;;;;;4994866;28;20126;-43
2021/03/14 14:30:39;;;;;;;3.10;0.70;;;;;;;;;;4995118;28;20061;-45
2021/03/14 14:33:05;;;;;;;2.08;0.40;;;;;;;;;;4986690;28;20113;-43
2021/03/14 14:35:32;;;;;;;1.70;0.47;;;;;;;;;;4994914;28;20072;-43
2021/03/14 14:37:58;;;;;;;0.50;0.32;;;;;;;;;;4997545;28;20022;-44
2021/03/14 14:40:24;;;;;;;2.67;0.60;;;;;;;;;;5000040;28;20037;-44
2021/03/14 14:42:50;;;;;;;2.92;0.73;;;;;;;;;;4990891;28;20026;-43
2021/03/14 14:45:17;;;;;;;2.53;0.60;;;;;;;;;;4987140;28;20037;-44